createdAt,value
2022-11-23T00:01:57.020Z,97709.25
2022-11-23T00:04:25.993Z,97704.56
2022-11-23T00:06:56.182Z,97708.44
2022-11-23T00:09:25.186Z,97699.28
2022-11-23T00:11:53.997Z,97701.59
2022-11-23T00:14:22.796Z,97698.94
2022-11-23T00:16:51.669Z,97706.06
2022-11-23T00:19:20.494Z,97711.72
2022-11-23T00:21:49.338Z,97698.50
2022-11-23T00:24:19.511Z,97702.56
2022-11-23T00:26:48.287Z,97704.81
2022-11-23T00:29:17.485Z,97713.13
2022-11-23T00:31:46.292Z,97707.84
2022-11-23T00:34:15.154Z,97704.44
2022-11-23T00:36:43.961Z,97707.06
2022-11-23T00:39:13.439Z,97707.50
2022-11-23T00:41:44.621Z,97705.66
2022-11-23T00:44:13.669Z,97706.84
2022-11-23T00:46:42.711Z,97711.13
2022-11-23T00:49:11.503Z,97720.66
2022-11-23T00:51:40.635Z,97717.56
2022-11-23T00:54:11.473Z,97711.31
2022-11-23T00:56:40.483Z,97714.16
2022-11-23T00:59:11.745Z,97711.13
2022-11-23T01:01:40.605Z,97706.25
2022-11-23T01:04:10.881Z,97709.94
2022-11-23T01:06:41.996Z,97706.88
2022-11-23T01:09:16.112Z,97712.41
2022-11-23T01:11:45.490Z,97713.22
2022-11-23T01:14:15.876Z,97717.69
2022-11-23T01:16:45.178Z,97719.72
2022-11-23T01:19:17.084Z,97721.72
2022-11-23T01:21:49.508Z,97716.69
2022-11-23T01:24:22.152Z,97715.66
2022-11-23T01:26:53.702Z,97715.88
2022-11-23T01:29:25.237Z,97720.56
2022-11-23T01:31:53.979Z,97715.66
2022-11-23T01:34:23.573Z,97706.13
2022-11-23T01:36:52.405Z,97701.28
2022-11-23T01:39:21.206Z,97706.34
2022-11-23T01:41:50.000Z,97706.16
2022-11-23T01:44:39.735Z,97700.28
2022-11-23T01:47:12.114Z,97704.34
2022-11-23T01:49:45.282Z,97697.22
2022-11-23T01:52:18.687Z,97694.19
2022-11-23T01:54:51.742Z,97696.22
2022-11-23T01:57:27.356Z,97701.91
2022-11-23T01:59:58.621Z,97702.31
2022-11-23T02:02:33.092Z,97705.97
2022-11-23T02:05:03.517Z,97699.44
2022-11-23T02:07:34.490Z,97706.19
2022-11-23T02:10:03.651Z,97700.50
2022-11-23T02:12:32.440Z,97710.44
2022-11-23T02:15:02.684Z,97714.50
2022-11-23T02:17:31.575Z,97715.91
2022-11-23T02:20:12.474Z,97723.41
2022-11-23T02:22:55.577Z,97722.19
2022-11-23T02:25:38.185Z,97726.84
2022-11-23T02:28:09.203Z,97718.34
2022-11-23T02:30:42.597Z,97713.66
2022-11-23T02:33:11.439Z,97716.31
2022-11-23T02:35:51.543Z,97715.28
2022-11-23T02:38:21.457Z,97717.31
2022-11-23T02:40:50.282Z,97722.22
2022-11-23T02:43:20.519Z,97727.47
2022-11-23T02:45:55.849Z,97730.72
2022-11-23T02:48:27.266Z,97727.84
2022-11-23T02:50:56.743Z,97733.13
2022-11-23T02:53:26.195Z,97729.88
2022-11-23T02:55:56.318Z,97723.81
2022-11-23T02:58:27.909Z,97728.66
2022-11-23T03:00:56.942Z,97727.47
2022-11-23T03:03:25.800Z,97739.19
2022-11-23T03:05:54.578Z,97733.94
2022-11-23T03:08:23.434Z,97739.38
2022-11-23T03:10:52.303Z,97738.38
2022-11-23T03:13:22.147Z,97734.09
2022-11-23T03:15:52.487Z,97739.38
2022-11-23T03:18:21.661Z,97748.50
2022-11-23T03:20:50.562Z,97740.38
2022-11-23T03:23:19.900Z,97738.75
2022-11-23T03:25:57.349Z,97740.56
2022-11-23T03:28:27.882Z,97745.69
2022-11-23T03:30:59.744Z,97737.16
2022-11-23T03:33:28.545Z,97738.78
2022-11-23T03:35:58.280Z,97733.69
2022-11-23T03:38:38.355Z,97745.31
2022-11-23T03:41:15.890Z,97735.56
2022-11-23T03:43:52.791Z,97734.53
2022-11-23T03:46:22.952Z,97740.00
2022-11-23T03:48:51.691Z,97735.91
2022-11-23T03:51:20.596Z,97744.84
2022-11-23T03:53:49.376Z,97746.09
2022-11-23T03:56:18.166Z,97749.72
2022-11-23T03:58:48.433Z,97749.28
2022-11-23T04:01:17.544Z,97748.28
2022-11-23T04:03:50.588Z,97740.97
2022-11-23T04:06:36.484Z,97738.94
2022-11-23T04:09:17.503Z,97737.13
2022-11-23T04:12:12.571Z,97741.56
2022-11-23T04:14:42.129Z,97746.44
2022-11-23T04:17:11.830Z,97735.09
2022-11-23T04:19:42.262Z,97744.03
2022-11-23T04:22:11.251Z,97737.53
2022-11-23T04:24:44.965Z,97737.56
2022-11-23T04:27:14.283Z,97740.19
2022-11-23T04:29:45.046Z,97738.38
2022-11-23T04:32:14.006Z,97745.63
2022-11-23T04:34:44.730Z,97739.16
2022-11-23T04:37:15.796Z,97740.34
2022-11-23T04:39:46.565Z,97742.81
2022-11-23T04:42:42.447Z,97739.16
2022-11-23T04:45:12.620Z,97742.81
2022-11-23T04:47:47.340Z,97736.28
2022-11-23T04:50:20.283Z,97739.97
2022-11-23T04:52:53.296Z,97740.34
2022-11-23T04:55:27.725Z,97739.97
2022-11-23T04:58:00.464Z,97741.19
2022-11-23T05:00:32.283Z,97737.13
2022-11-23T05:03:03.602Z,97743.22
2022-11-23T05:05:38.816Z,97746.44
2022-11-23T05:08:09.352Z,97739.97
2022-11-23T05:10:49.208Z,97745.06
2022-11-23T05:13:18.238Z,97743.22
2022-11-23T05:15:48.294Z,97736.75
2022-11-23T05:18:22.147Z,97750.34
2022-11-23T05:20:55.682Z,97745.91
2022-11-23T05:23:24.577Z,97745.69
2022-11-23T05:25:55.327Z,97744.03
2022-11-23T05:28:41.413Z,97740.00
2022-11-23T05:31:14.735Z,97743.81
2022-11-23T05:33:46.096Z,97748.13
2022-11-23T05:36:18.186Z,97760.69
2022-11-23T05:38:46.919Z,97753.38
2022-11-23T05:41:26.335Z,97748.50
2022-11-23T05:43:59.435Z,97755.03
2022-11-23T05:46:30.542Z,97750.59
2022-11-23T05:49:02.512Z,97756.69
2022-11-23T05:51:37.604Z,97748.97
2022-11-23T05:54:07.002Z,97760.72
2022-11-23T05:56:46.719Z,97755.03
2022-11-23T05:59:20.426Z,97759.94
2022-11-23T06:01:54.337Z,97764.38
2022-11-23T06:04:31.589Z,97763.34
2022-11-23T06:07:03.386Z,97759.09
2022-11-23T06:10:01.506Z,97768.03
2022-11-23T06:12:55.906Z,97766.41
2022-11-23T06:15:25.606Z,97770.50
2022-11-23T06:17:54.543Z,97767.22
2022-11-23T06:20:24.116Z,97767.25
2022-11-23T06:23:01.141Z,97776.97
2022-11-23T06:25:30.874Z,97778.16
2022-11-23T06:28:08.497Z,97783.47
2022-11-23T06:30:44.433Z,97785.06
2022-11-23T06:33:17.578Z,97785.28
2022-11-23T07:53:44.970Z,97821.56
2022-11-23T07:56:13.904Z,97815.28
2022-11-23T07:58:42.592Z,97814.66
2022-11-23T08:01:11.853Z,97815.91
2022-11-23T08:03:40.675Z,97817.09
2022-11-23T08:06:11.997Z,97826.03
2022-11-23T08:08:40.985Z,97815.28
2022-11-23T08:11:20.106Z,97817.91
2022-11-23T08:13:49.658Z,97818.13
2022-11-23T08:16:20.135Z,97809.81
2022-11-23T08:18:50.831Z,97817.09
2022-11-23T08:21:19.597Z,97811.81
2022-11-23T08:23:48.304Z,97820.34
2022-11-23T08:26:18.541Z,97817.72
2022-11-23T08:28:47.390Z,97816.88
2022-11-23T08:31:16.405Z,97815.06
2022-11-23T08:33:45.080Z,97812.59
2022-11-23T08:36:13.835Z,97807.31
2022-11-23T08:38:42.686Z,97817.06
2022-11-23T08:41:11.458Z,97815.63
2022-11-23T08:43:41.573Z,97816.84
2022-11-23T08:46:11.554Z,97816.63
2022-11-23T08:48:40.346Z,97817.84
2022-11-23T08:51:09.479Z,97823.13
2022-11-23T08:53:38.781Z,97817.22
2022-11-23T08:56:09.710Z,97818.19
2022-11-23T08:58:38.484Z,97813.28
2022-11-23T09:01:12.480Z,97822.22
2022-11-23T09:03:42.218Z,97820.56
2022-11-23T09:06:11.396Z,97827.44
2022-11-23T09:08:40.668Z,97830.84
2022-11-23T09:11:14.447Z,97826.19
2022-11-23T09:13:43.402Z,97828.44
2022-11-23T09:16:13.528Z,97820.09
2022-11-23T09:18:42.316Z,97822.91
2022-11-23T09:21:12.159Z,97821.66
2022-11-23T09:23:40.846Z,97816.31
2022-11-23T09:26:10.640Z,97821.97
2022-11-23T09:28:44.455Z,97813.00
2022-11-23T09:31:15.248Z,97813.75
2022-11-23T09:33:43.941Z,97813.34
2022-11-23T09:36:12.704Z,97806.19
2022-11-23T09:38:57.668Z,97804.50
2022-11-23T09:42:01.884Z,97802.41
2022-11-23T09:44:57.005Z,97797.69
2022-11-23T09:48:01.078Z,97792.34
2022-11-23T09:50:41.822Z,97799.63
2022-11-23T09:53:17.388Z,97795.97
2022-11-23T09:55:48.249Z,97795.94
2022-11-23T09:58:20.379Z,97790.59
2022-11-23T10:00:54.997Z,97791.44
2022-11-23T10:03:25.157Z,97794.19
2022-11-23T10:06:05.912Z,97793.44
2022-11-23T10:08:48.108Z,97785.44
2022-11-23T10:14:18.078Z,97783.25
2022-11-23T10:16:58.848Z,97788.06
2022-11-23T10:19:47.684Z,97779.00
2022-11-23T10:22:29.044Z,97774.44
2022-11-23T10:24:57.869Z,97779.66
2022-11-23T10:27:27.318Z,97782.63
2022-11-23T10:30:00.460Z,97783.56
2022-11-23T10:32:36.739Z,97782.81
2022-11-23T10:35:13.800Z,97777.53
2022-11-23T10:37:43.350Z,97777.16
2022-11-23T10:40:19.192Z,97772.94
2022-11-23T10:42:55.124Z,97775.75
2022-11-23T10:45:28.441Z,97772.31
2022-11-23T10:47:59.555Z,97766.25
2022-11-23T10:50:33.846Z,97771.03
2022-11-23T10:53:21.274Z,97762.97
2022-11-23T10:55:55.100Z,97762.50
2022-11-23T10:58:30.257Z,97765.28
2022-11-23T11:01:04.701Z,97764.38
2022-11-23T11:03:36.382Z,97769.13
2022-11-23T11:06:09.530Z,97761.28
2022-11-23T11:08:52.452Z,97760.47
2022-11-23T11:11:28.469Z,97762.56
2022-11-23T11:14:06.983Z,97759.59
2022-11-23T11:16:39.384Z,97749.06
2022-11-23T11:19:29.045Z,97751.41
2022-11-23T11:21:58.574Z,97747.84
2022-11-23T11:24:35.361Z,97752.22
2022-11-23T11:27:13.726Z,97753.38
2022-11-23T11:29:52.417Z,97754.53
2022-11-23T11:32:31.616Z,97750.38
2022-11-23T11:35:12.833Z,97750.72
2022-11-23T11:37:47.029Z,97752.09
2022-11-23T11:40:27.387Z,97754.28
2022-11-23T11:43:05.117Z,97755.94
2022-11-23T11:45:46.292Z,97741.81
2022-11-23T11:48:34.581Z,97748.28
2022-11-23T11:51:13.425Z,97755.00
2022-11-23T11:53:52.838Z,97749.78
2022-11-23T11:56:31.888Z,97752.44
2022-11-23T11:59:15.054Z,97751.97
2022-11-23T12:01:58.022Z,97750.50
2022-11-23T12:04:37.082Z,97745.19
2022-11-23T12:07:17.644Z,97753.34
2022-11-23T12:09:51.422Z,97740.78
2022-11-23T12:12:29.481Z,97751.31
2022-11-23T12:14:59.149Z,97742.84
2022-11-23T12:17:51.730Z,97741.81
2022-11-23T12:20:32.299Z,97737.31
2022-11-23T12:23:21.289Z,97736.03
2022-11-23T12:26:08.961Z,97743.22
2022-11-23T12:28:59.833Z,97734.44
2022-11-23T12:31:44.844Z,97737.44
2022-11-23T12:34:33.888Z,97740.69
2022-11-23T12:37:32.706Z,97742.28
2022-11-23T12:40:29.919Z,97742.28
2022-11-23T12:43:07.976Z,97741.00
2022-11-23T12:46:05.415Z,97741.00
2022-11-23T12:49:01.888Z,97740.19
2022-11-23T12:51:43.308Z,97741.81
2022-11-23T12:54:44.422Z,97747.13
2022-11-23T12:57:25.334Z,97735.94
2022-11-23T13:00:06.340Z,97745.75
2022-11-23T13:03:40.001Z,97748.75
2022-11-23T13:10:28.760Z,97750.94
2022-11-23T13:13:37.575Z,97753.72
2022-11-23T13:16:41.350Z,97749.44
2022-11-23T13:19:53.394Z,97755.19
2022-11-23T13:22:25.724Z,97753.16
2022-11-23T13:25:21.000Z,97751.41
2022-11-23T13:28:07.036Z,97757.63
2022-11-23T13:31:13.392Z,97756.94
2022-11-23T13:33:37.993Z,97759.13
2022-11-23T13:36:16.839Z,97755.44
2022-11-23T13:38:48.596Z,97756.00
2022-11-23T13:42:11.282Z,97750.44
2022-11-23T13:44:41.626Z,97756.25
2022-11-23T13:47:21.831Z,97756.38
2022-11-23T13:49:53.501Z,97751.50
2022-11-23T13:52:32.459Z,97748.28
2022-11-23T13:55:22.634Z,97750.50
2022-11-23T13:58:42.752Z,97749.44
2022-11-23T14:01:52.343Z,97757.84
2022-11-23T14:04:24.647Z,97751.88
2022-11-23T14:06:59.682Z,97758.22
2022-11-23T14:09:37.772Z,97760.88
2022-11-23T14:12:23.956Z,97750.72
2022-11-23T14:15:04.738Z,97756.50
2022-11-23T14:18:25.413Z,97758.78
2022-11-23T14:21:13.881Z,97760.31
2022-11-23T14:24:29.050Z,97755.13
2022-11-23T14:27:48.435Z,97768.84
2022-11-23T14:30:35.393Z,97767.47
2022-11-23T14:33:36.367Z,97769.88
2022-11-23T14:36:24.837Z,97770.25
2022-11-23T14:39:52.971Z,97766.41
2022-11-23T14:42:27.717Z,97774.81
2022-11-23T14:44:59.272Z,97775.63
2022-11-23T14:47:30.109Z,97773.22
2022-11-23T14:50:00.789Z,97772.53
2022-11-23T14:52:35.100Z,97774.13
2022-11-23T14:55:07.171Z,97770.91
2022-11-23T14:57:44.483Z,97775.03
2022-11-23T15:00:29.855Z,97766.75
2022-11-23T15:03:34.000Z,97766.81
2022-11-23T15:06:07.704Z,97768.06
2022-11-23T15:08:48.759Z,97772.81
2022-11-23T15:11:24.465Z,97775.66
2022-11-23T15:13:58.214Z,97780.22
2022-11-23T15:16:28.006Z,97785.84
2022-11-23T15:18:57.184Z,97787.59
2022-11-23T15:21:29.440Z,97786.56
2022-11-23T15:24:00.558Z,97793.38
2022-11-23T15:26:48.049Z,97793.88
2022-11-23T15:29:33.686Z,97792.78
2022-11-23T15:32:29.141Z,97804.59
2022-11-23T15:34:57.828Z,97800.91
2022-11-23T15:37:30.767Z,97800.97
2022-11-23T15:40:00.153Z,97805.09
2022-11-23T15:42:31.739Z,97807.41
2022-11-23T15:45:01.337Z,97807.25
2022-11-23T15:47:32.142Z,97813.78
2022-11-23T15:50:09.980Z,97816.41
2022-11-23T15:52:40.426Z,97815.28
2022-11-23T15:55:16.817Z,97818.44
2022-11-23T15:57:45.884Z,97819.47
2022-11-23T16:00:26.199Z,97820.13
2022-11-23T16:03:33.388Z,97822.13
2022-11-23T16:06:35.485Z,97823.72
2022-11-23T16:09:50.997Z,97825.94
2022-11-23T16:12:30.382Z,97823.66
2022-11-23T16:15:46.523Z,97820.19
2022-11-23T16:18:25.216Z,97821.81
2022-11-23T16:20:59.460Z,97824.81
2022-11-23T16:23:37.900Z,97822.25
2022-11-23T16:26:08.134Z,97824.97
2022-11-23T16:28:40.443Z,97834.28
2022-11-23T16:31:37.440Z,97831.41
2022-11-23T16:34:14.051Z,97834.22
2022-11-23T16:36:42.821Z,97833.00
2022-11-23T16:39:16.924Z,97832.53
2022-11-23T16:41:45.849Z,97829.31
2022-11-23T16:44:14.684Z,97824.03
2022-11-23T16:46:46.846Z,97828.50
2022-11-23T16:49:20.677Z,97823.69
2022-11-23T16:51:56.386Z,97830.75
2022-11-23T16:54:26.513Z,97830.31
2022-11-23T16:56:55.468Z,97832.34
2022-11-23T16:59:25.915Z,97826.41
2022-11-23T17:01:57.725Z,97831.59
2022-11-23T17:04:27.282Z,97831.19
2022-11-23T17:06:56.294Z,97827.94
2022-11-23T17:09:25.412Z,97823.03
2022-11-23T17:11:54.211Z,97822.81
2022-11-23T17:14:29.428Z,97821.75
2022-11-23T17:17:04.081Z,97818.97
2022-11-23T17:19:33.208Z,97821.72
2022-11-23T17:22:02.450Z,97823.41
2022-11-23T17:24:32.715Z,97823.34
2022-11-23T17:27:02.820Z,97828.06
2022-11-23T17:29:36.592Z,97828.69
2022-11-23T17:32:12.986Z,97835.06
2022-11-23T17:34:44.598Z,97832.09
2022-11-23T17:37:21.183Z,97832.31
2022-11-23T17:40:40.635Z,97834.47
2022-11-23T17:43:14.816Z,97836.69
2022-11-23T17:45:47.406Z,97832.47
2022-11-23T17:48:22.774Z,97841.75
2022-11-23T17:50:51.754Z,97846.09
2022-11-23T17:53:24.253Z,97847.81
2022-11-23T17:55:54.802Z,97845.19
2022-11-23T17:58:24.292Z,97844.72
2022-11-23T18:00:58.573Z,97854.22
2022-11-23T18:03:33.815Z,97839.59
2022-11-23T18:06:02.755Z,97845.66
2022-11-23T18:08:31.983Z,97854.19
2022-11-23T18:11:26.298Z,97846.03
2022-11-23T18:13:55.425Z,97852.56
2022-11-23T18:16:28.694Z,97842.53
2022-11-23T18:18:59.806Z,97841.66
2022-11-23T18:21:47.614Z,97848.81
2022-11-23T18:24:17.158Z,97859.66
2022-11-23T18:26:50.580Z,97847.91
2022-11-23T18:29:20.066Z,97845.28
2022-11-23T18:31:53.454Z,97857.34
2022-11-23T18:34:31.410Z,97858.22
2022-11-23T18:37:00.556Z,97859.00
2022-11-23T18:39:29.632Z,97861.00
2022-11-23T18:42:04.078Z,97856.66
2022-11-23T18:44:35.074Z,97855.22
2022-11-23T18:47:03.993Z,97853.59
2022-11-23T18:49:35.446Z,97855.22
2022-11-23T18:52:05.095Z,97847.59
2022-11-23T18:54:34.096Z,97853.06
2022-11-23T18:57:03.054Z,97849.84
2022-11-23T18:59:59.359Z,97840.38
2022-11-23T19:02:28.421Z,97845.66
2022-11-23T19:04:59.892Z,97845.84
2022-11-23T19:07:28.924Z,97849.53
2022-11-23T19:09:57.800Z,97847.34
2022-11-23T19:12:26.551Z,97853.50
2022-11-23T19:14:55.648Z,97861.13
2022-11-23T19:17:24.402Z,97858.25
2022-11-23T19:19:53.162Z,97866.78
2022-11-23T19:22:24.218Z,97866.44
2022-11-23T19:24:53.076Z,97868.09
2022-11-23T19:27:22.028Z,97877.06
2022-11-23T19:29:50.782Z,97881.56
2022-11-23T19:32:19.532Z,97884.00
2022-11-23T19:34:48.437Z,97886.00
2022-11-23T19:37:17.458Z,97880.88
2022-11-23T19:39:48.175Z,97892.84
2022-11-23T19:42:17.108Z,97893.72
2022-11-23T19:44:46.019Z,97895.75
2022-11-23T19:47:19.898Z,97896.75
2022-11-23T19:49:51.237Z,97899.75
2022-11-23T19:52:20.035Z,97891.28
2022-11-23T19:54:50.074Z,97894.94
2022-11-23T19:57:18.905Z,97893.31
2022-11-23T19:59:48.159Z,97897.97
2022-11-23T20:02:26.535Z,97904.66
2022-11-23T20:04:55.347Z,97900.25
2022-11-23T20:07:24.186Z,97898.25
2022-11-23T20:09:54.445Z,97904.75
2022-11-23T20:12:23.283Z,97900.28
2022-11-23T20:14:52.097Z,97902.69
2022-11-23T20:17:21.090Z,97903.94
2022-11-23T20:19:49.758Z,97903.78
2022-11-23T20:22:18.544Z,97896.84
2022-11-23T20:24:47.265Z,97896.84
2022-11-23T20:27:17.415Z,97899.91
2022-11-23T20:29:46.208Z,97908.22
2022-11-23T20:32:15.053Z,97905.34
2022-11-23T20:34:43.874Z,97908.81
2022-11-23T20:37:12.602Z,97913.31
2022-11-23T20:39:42.449Z,97912.09
2022-11-23T20:42:11.142Z,97907.25
2022-11-23T20:44:41.268Z,97910.47
2022-11-23T20:47:10.068Z,97921.84
2022-11-23T20:49:38.811Z,97915.16
2022-11-23T20:52:07.855Z,97925.94
2022-11-23T20:54:36.979Z,97921.47
2022-11-23T20:57:05.919Z,97932.41
2022-11-23T20:59:34.917Z,97924.69
2022-11-23T21:02:05.092Z,97934.22
2022-11-23T21:04:34.238Z,97939.09
2022-11-23T21:07:03.348Z,97940.94
2022-11-23T21:09:32.520Z,97940.75
2022-11-23T21:12:19.179Z,97950.28
2022-11-23T21:14:48.021Z,97948.03
2022-11-23T21:17:18.137Z,97954.34
2022-11-23T21:19:46.977Z,97955.34
2022-11-23T21:22:18.723Z,97956.59
2022-11-23T21:24:47.781Z,97958.22
2022-11-23T21:27:17.306Z,97961.28
2022-11-23T21:29:46.550Z,97952.50
2022-11-23T21:32:15.278Z,97957.78
2022-11-23T21:34:45.719Z,97961.25
2022-11-23T21:37:14.527Z,97965.31
2022-11-23T21:39:46.619Z,97964.91
2022-11-23T21:42:18.231Z,97971.81
2022-11-23T21:44:47.021Z,97961.66
2022-11-23T21:47:16.652Z,97971.41
2022-11-23T21:49:47.261Z,97969.38
2022-11-23T21:52:22.659Z,97966.34
2022-11-23T21:54:53.454Z,97965.72
2022-11-23T21:57:28.258Z,97967.31
2022-11-23T21:59:57.056Z,97964.09
2022-11-23T22:02:25.984Z,97965.91
2022-11-23T22:04:56.383Z,97964.09
2022-11-23T22:07:25.180Z,97969.97
2022-11-23T22:09:53.909Z,97974.88
2022-11-23T22:12:23.414Z,97972.22
2022-11-23T22:14:52.198Z,97987.84
2022-11-23T22:17:20.941Z,97992.91
2022-11-23T22:19:49.760Z,97991.72
2022-11-23T22:22:20.000Z,97998.97
2022-11-23T22:24:49.023Z,97994.94
2022-11-23T22:27:17.822Z,97995.72
2022-11-23T22:29:46.589Z,97995.94
2022-11-23T22:32:15.444Z,98006.28
2022-11-23T22:34:44.297Z,98000.78
2022-11-23T22:37:13.481Z,98003.63
2022-11-23T22:39:43.679Z,98006.66
2022-11-23T22:42:12.497Z,98008.72
2022-11-23T22:44:41.316Z,98015.59
2022-11-23T22:47:10.564Z,98014.38
2022-11-23T22:49:39.442Z,98015.22
2022-11-23T22:52:08.218Z,98014.41
2022-11-23T22:54:37.005Z,98024.56
2022-11-23T22:57:07.544Z,98018.69
2022-11-23T22:59:36.322Z,98018.03
2022-11-23T23:02:05.151Z,98022.47
2022-11-23T23:04:34.039Z,98028.56
2022-11-23T23:07:02.899Z,98026.91
2022-11-23T23:09:31.701Z,98033.41
2022-11-23T23:12:00.566Z,98031.41
2022-11-23T23:14:30.901Z,98031.19
2022-11-23T23:17:01.064Z,98032.19
2022-11-23T23:19:30.911Z,98035.03
2022-11-23T23:21:59.701Z,98035.38
2022-11-23T23:24:28.596Z,98034.53
2022-11-23T23:26:57.475Z,98044.03
2022-11-23T23:29:26.429Z,98036.59
2022-11-23T23:31:57.057Z,98037.44
2022-11-23T23:34:27.123Z,98047.81
2022-11-23T23:36:57.521Z,98042.31
2022-11-23T23:39:26.473Z,98039.28
2022-11-23T23:41:55.393Z,98038.22
2022-11-23T23:44:24.299Z,98038.63
2022-11-23T23:46:53.080Z,98047.50
2022-11-23T23:49:24.623Z,98041.00
2022-11-23T23:51:53.587Z,98047.06
2022-11-23T23:54:22.358Z,98044.25
2022-11-23T23:56:51.359Z,98048.72
2022-11-23T23:59:20.198Z,98051.94
